Aérodrome :
LOGIN :

S'inscrire | Disclaimer

   EN    FR    IT 

 










Légende :    VFR   VFR Marginal   IFR   IFR Intensif   IFR Très Intensif
Visi : 
Plafond : 
>= 8 km
>= 3000ft
5 à 8 km
1000 à 3000 ft
1500m à 5 km
500 à 1000 ft
800 à 1500m
200 à 500 ft
< 800m
< 200 ft
Symboles :   Orages  Brouillard  Fortes neiges  Fortes précipitations  Vent > 20 kt
SIGMETs :   Divers  Orages  Givrage  Turbulence  Onde Orograph.  Cendres Volcan.







- Altitude de l'aérodrome : 502 ft
- Code IATA : ORK


EICK - Cork

DERNIER METAR :
  • 121730Z 29015KT 9999 FEW015 BKN023 08/07 Q1003 NOSIG

METARs EXPIRÉS :
  • 121700Z 31011KT 9999 FEW008 BKN018 07/07 Q1002 NOSIG
  • 121630Z 31013KT 9999 -RA FEW008 SCT020 BKN050 07/07 Q1002 BECMG BKN017
  • 121600Z 25005KT 220V280 9999 -RA FEW003 BKN011 07/07 Q1002 BECMG BKN017
  • 121530Z 22011KT 3000 -RA FEW002 BKN003 07/07 Q1002 TEMPO 2000
  • 121500Z 21015KT 6000 -RA FEW001 BKN002 07/07 Q1001 TEMPO 2000

TAF TAF EICK
Valide du 12 à 18h jusqu'au 13 à 18h UTC


121700Z 1218/1318 30013KT 9999 FEW015 BKN025
BECMG 1218/1221 26007KT
BECMG 1300/1303 23008KT
PROB40
TEMPO 1301/1304 -SHRA BKN012
TEMPO 1304/1309 4000 -RA BKN010
BECMG 1305/1307 24014KT
BECMG 1307/1310 27015G26KT
BECMG 1310/1312 28020G33KT
BECMG 1312/1314 25022G35KT
TEMPO 1313/1316 4000 SHRA BKN010 SCT018CB
BECMG 1315/1317 28022G36KT
TEMPO 1316/1318 5000 SHRA SCT010 SCT018CB
Pas de NOTAMs connus pour ce terrain.
1 SIGMET publié pour la FIR Shannon (EISN) :
 
Turbulence forte
EISN SIGMET 03 VALID 121430/121830 EINN
EISN SHANNON FIR/UIR SEV TURB FCST WI N5100 W00800 - N5420 W01200 - N5434 W01000 - N5445 W00900 - N5425 W00810 - N5215 W00540 - N5100 W00800 FL220/410 MOV ENE AT 18KT NC=



MET'MAP, la Météo Aéronautique d'un coup d'oeil ! - Copyright ORBIFLY Décembre 2007 - Disclaimer

ORBIFLY MET'MAP TEAM :

Programmation & Développement : Alexandra Zaïnal
Conception & Développement : Baudouin d'Aumeries
Co-Programmation & Développement : Marc-Olivier Méhu
Soutien technique & logistique : Manuel Goepfert

Contact : metmap@orbifly.com




SOURCES & CREDITS :

   NOAA